Terminal Aerodrome Forecast
Issued by NWS Jackson, MS

Home | Current Version | Previous Version | Text Only | Print | Product List | Glossary On
Versions: 1 2 3 4 5 6 7 8 9 10 11 12 13 14 15 16 17
000
FTUS44 KJAN 271723 AAB
TAFHBG
TAF AMD
KHBG 271723Z 2717/2818 05010KT 3SM TSRA BKN035CB OVC100
     FM271900 08010KT P6SM SCT020 BKN150
     FM272200 09006KT P6SM VCSH OVC050
     FM280100 09012KT 6SM -RA BR OVC015
     FM280500 08011KT 5SM -RA BR VCTS BKN010 OVC020CB=

USA.gov is the U.S. government's official web portal to all federal, state and local government web resources and services.